Time;durP1;ratioP1;P1;durP2;ratioP2;P2;SDS_P1;SDS_P2;PMS_P1;PMS_P2;Temp;Humidity;BMP_temperature;BMP_pressure;BME280_temperature;BME280_humidity;BME280_pressure;Samples;Min_cycle;Max_cycle;Signal;HPM_P1;HPM_P2
2021/11/03 00:02:29;;;;;;;65.82;34.92;;;;;;;4.37;100.00;100038.53;10582607;28;20047;-61
2021/11/03 00:07:31;;;;;;;57.20;30.80;;;;;;;4.29;100.00;100035.44;10564467;28;20500;-58
2021/11/03 00:12:34;;;;;;;65.32;35.35;;;;;;;4.10;100.00;100025.00;10582096;28;20039;-60
2021/11/03 00:17:37;;;;;;;36.75;25.55;;;;;;;4.19;100.00;100021.19;10564383;28;20047;-60
2021/11/03 00:22:40;;;;;;;39.78;26.17;;;;;;;4.34;100.00;100022.25;10581947;28;20044;-59
2021/11/03 00:27:42;;;;;;;39.05;25.63;;;;;;;4.58;100.00;100025.53;10582371;28;20043;-59
2021/11/03 00:32:45;;;;;;;42.17;28.80;;;;;;;4.40;100.00;100034.94;10581796;28;20047;-60
2021/11/03 00:37:47;;;;;;;55.63;29.67;;;;;;;4.29;100.00;100025.06;10581813;28;20388;-60
2021/11/03 00:42:50;;;;;;;41.13;25.25;;;;;;;4.77;100.00;100021.16;10581348;28;20051;-60
2021/11/03 00:47:53;;;;;;;57.63;29.67;;;;;;;4.32;100.00;100024.06;10581619;28;20048;-59
2021/11/03 00:52:55;;;;;;;47.25;28.38;;;;;;;4.56;100.00;100020.41;10581217;28;20562;-60
2021/11/03 00:57:57;;;;;;;52.83;29.45;;;;;;;4.31;100.00;100020.66;10583791;28;20399;-59
2021/11/03 01:02:59;;;;;;;36.05;24.65;;;;;;;4.57;100.00;100010.88;10589625;28;20047;-60
2021/11/03 01:08:02;;;;;;;48.22;27.13;;;;;;;4.54;100.00;100013.59;10589586;28;20513;-59
2021/11/03 01:13:04;;;;;;;31.35;21.02;;;;;;;4.57;100.00;100021.22;10589146;28;20040;-61
2021/11/03 01:18:07;;;;;;;51.05;26.08;;;;;;;4.57;100.00;100019.50;10589791;28;20043;-59
2021/11/03 01:23:09;;;;;;;60.03;28.40;;;;;;;4.20;100.00;100023.72;10589145;28;20140;-60
2021/11/03 01:28:12;;;;;;;56.95;27.20;;;;;;;4.11;100.00;100021.50;10588936;28;20051;-60
2021/11/03 01:33:16;;;;;;;49.60;26.90;;;;;;;4.08;100.00;100022.50;10570674;28;20073;-60
2021/11/03 01:38:19;;;;;;;30.77;22.33;;;;;;;4.01;100.00;100028.00;10588512;28;20080;-60
2021/11/03 01:43:50;;;;;;;57.72;25.63;;;;;;;3.95;100.00;100023.06;10570337;28;20054;-60
2021/11/03 01:49:04;;;;;;;32.17;21.40;;;;;;;4.18;100.00;100019.50;10588066;28;20167;-59
2021/11/03 01:54:08;;;;;;;35.65;23.25;;;;;;;4.00;100.00;100021.13;10587950;28;20048;-59
2021/11/03 01:59:33;;;;;;;69.10;28.83;;;;;;;3.66;100.00;100023.38;10569551;28;20067;-60
2021/11/03 02:04:36;;;;;;;31.52;21.63;;;;;;;3.64;100.00;100014.81;10587777;28;20047;-60
2021/11/03 02:09:39;;;;;;;37.17;23.13;;;;;;;3.72;100.00;100011.94;10568517;28;20050;-60
2021/11/03 02:14:41;;;;;;;60.03;29.65;;;;;;;3.62;100.00;100005.47;10587597;28;20044;-59
2021/11/03 02:19:45;;;;;;;31.65;21.25;;;;;;;3.76;100.00;100004.88;10586609;28;20134;-60
2021/11/03 02:24:55;;;;;;;39.78;24.10;;;;;;;3.48;100.00;100000.81;10569137;28;20040;-59
2021/11/03 02:29:58;;;;;;;72.28;30.50;;;;;;;3.42;100.00;99996.75;10586109;28;20498;-60
2021/11/03 02:35:00;;;;;;;63.42;28.55;;;;;;;3.52;100.00;99992.03;10586063;28;20480;-60
2021/11/03 02:40:36;;;;;;;98.47;33.15;;;;;;;3.45;100.00;99993.22;10585643;28;20047;-60
2021/11/03 02:45:57;;;;;;;79.80;26.10;;;;;;;3.25;100.00;100001.78;10568141;28;20043;-59
2021/11/03 02:51:05;;;;;;;31.08;20.67;;;;;;;3.53;100.00;99991.13;10585177;28;20044;-61
2021/11/03 02:56:08;;;;;;;37.47;24.60;;;;;;;3.81;100.00;99990.81;10585798;28;20044;-59
2021/11/03 03:01:32;;;;;;;78.28;27.83;;;;;;;3.78;100.00;99984.94;10584980;28;20047;-60
2021/11/03 03:06:35;;;;;;;80.70;28.05;;;;;;;3.92;100.00;99985.19;10584899;28;20501;-61
2021/11/03 03:11:39;;;;;;;48.80;25.60;;;;;;;3.99;100.00;99981.44;10584440;28;20395;-62
2021/11/03 03:16:43;;;;;;;49.50;25.65;;;;;;;3.86;100.00;99988.88;10585271;28;20049;-60
2021/11/03 03:21:46;;;;;;;51.10;25.80;;;;;;;4.27;100.00;99993.19;10583158;28;20581;-61
2021/11/03 03:26:49;;;;;;;51.78;27.60;;;;;;;4.12;100.00;99994.72;10584098;28;20403;-60
2021/11/03 03:31:52;;;;;;;53.20;27.52;;;;;;;4.02;100.00;99991.66;10584155;28;20047;-59
2021/11/03 03:36:55;;;;;;;47.35;26.10;;;;;;;3.68;100.00;100006.03;10565710;28;20051;-60
2021/11/03 03:42:06;;;;;;;32.47;21.60;;;;;;;4.01;100.00;100013.28;10565173;28;20051;-59
2021/11/03 03:47:09;;;;;;;27.88;20.00;;;;;;;3.49;100.00;100020.63;10583110;28;20055;-62
2021/11/03 03:52:11;;;;;;;34.42;22.40;;;;;;;3.56;100.00;100022.06;10583281;28;20159;-59
2021/11/03 03:57:14;;;;;;;35.60;22.58;;;;;;;3.53;100.00;100014.41;10583240;28;20051;-58
2021/11/03 04:02:16;;;;;;;44.78;24.65;;;;;;;3.29;100.00;100011.91;10582688;28;20071;-59
2021/11/03 04:07:18;;;;;;;33.22;20.83;;;;;;;3.29;100.00;100011.06;10582691;28;20048;-58
2021/11/03 04:12:25;;;;;;;30.63;19.92;;;;;;;3.28;100.00;100012.84;10582216;28;20398;-59
2021/11/03 04:17:27;;;;;;;36.58;22.90;;;;;;;3.17;100.00;100031.34;10582546;28;20407;-60
2021/11/03 04:22:30;;;;;;;37.40;23.13;;;;;;;3.24;100.00;100031.13;10582131;28;20044;-59
2021/11/03 04:27:32;;;;;;;53.70;28.30;;;;;;;3.33;100.00;100023.00;10582425;28;20054;-59
2021/11/03 04:32:35;;;;;;;48.15;25.60;;;;;;;3.12;100.00;100030.69;10581343;28;20050;-59
2021/11/03 04:37:37;;;;;;;42.22;24.90;;;;;;;3.25;100.00;100048.34;10581878;28;20051;-59
2021/11/03 04:42:40;;;;;;;50.72;27.95;;;;;;;3.35;100.00;100055.66;10581607;28;20079;-60
2021/11/03 04:47:42;;;;;;;49.17;28.45;;;;;;;3.27;100.00;100042.19;10563619;28;20480;-59
2021/11/03 04:52:45;;;;;;;35.60;22.35;;;;;;;3.53;100.00;100045.47;10581107;28;20505;-60
2021/11/03 04:57:47;;;;;;;38.35;25.73;;;;;;;3.50;100.00;100046.47;10581741;28;20047;-60
2021/11/03 05:02:50;;;;;;;46.72;28.05;;;;;;;3.48;100.00;100055.16;10581704;28;20044;-58
2021/11/03 05:07:54;;;;;;;55.97;29.92;;;;;;;3.49;100.00;100047.34;10581763;28;20047;-59
2021/11/03 05:12:56;;;;;;;45.50;28.85;;;;;;;3.57;100.00;100036.69;10580941;28;20044;-60
2021/11/03 05:17:59;;;;;;;34.70;24.10;;;;;;;3.58;100.00;100043.56;10581032;28;20044;-60
2021/11/03 05:23:02;;;;;;;41.70;26.88;;;;;;;3.83;100.00;100040.81;10580844;28;20044;-59
2021/11/03 05:28:04;;;;;;;38.33;25.38;;;;;;;3.86;100.00;100042.41;10581627;28;20040;-59
2021/11/03 05:33:07;;;;;;;48.90;29.13;;;;;;;3.78;100.00;100052.25;10580621;28;20495;-59
2021/11/03 05:38:09;;;;;;;40.40;22.80;;;;;;;3.58;100.00;100051.34;10580752;28;20043;-59
2021/11/03 05:43:12;;;;;;;77.72;26.63;;;;;;;3.30;100.00;100067.94;10581927;28;20051;-60
2021/11/03 05:48:14;;;;;;;41.30;22.58;;;;;;;3.46;100.00;100069.91;10588105;28;20050;-60
2021/11/03 05:53:16;;;;;;;84.93;29.77;;;;;;;3.34;100.00;100066.91;10587715;28;20491;-60
2021/11/03 05:58:19;;;;;;;61.75;29.35;;;;;;;3.31;100.00;100063.59;10587918;28;20043;-61
2021/11/03 06:03:21;;;;;;;62.83;27.42;;;;;;;3.33;100.00;100057.47;10587754;28;20043;-59
2021/11/03 06:08:23;;;;;;;46.88;26.48;;;;;;;3.09;100.00;100048.94;10587668;28;20047;-59
2021/11/03 06:13:26;;;;;;;40.30;25.17;;;;;;;3.30;100.00;100041.25;10586862;28;20149;-59
2021/11/03 06:18:29;;;;;;;51.65;28.83;;;;;;;3.26;100.00;100042.25;10586928;28;20048;-60
2021/11/03 06:23:32;;;;;;;41.45;27.42;;;;;;;3.38;100.00;100051.25;10586592;28;20044;-59
2021/11/03 06:28:34;;;;;;;38.78;24.15;;;;;;;3.41;100.00;100051.16;10568292;28;20388;-60
2021/11/03 06:33:37;;;;;;;46.47;26.35;;;;;;;3.42;100.00;100043.31;10586230;28;20048;-60
2021/11/03 06:38:39;;;;;;;40.38;24.70;;;;;;;3.27;100.00;100049.94;10568021;28;20055;-59
2021/11/03 06:43:42;;;;;;;52.25;29.35;;;;;;;3.32;100.00;100044.59;10585778;28;20135;-59
2021/11/03 06:48:44;;;;;;;34.58;24.63;;;;;;;3.34;100.00;100051.38;10585723;28;20514;-59
2021/11/03 06:53:47;;;;;;;69.40;33.13;;;;;;;3.67;100.00;100052.72;10585666;28;20055;-59
2021/11/03 06:58:49;;;;;;;32.92;22.35;;;;;;;3.69;100.00;100058.66;10585270;28;20044;-60
2021/11/03 07:03:53;;;;;;;49.50;27.02;;;;;;;3.55;100.00;100067.00;10584921;28;20063;-58
2021/11/03 07:08:57;;;;;;;59.80;32.25;;;;;;;3.76;100.00;100072.19;10584806;28;20047;-60
2021/11/03 07:14:00;;;;;;;41.42;25.80;;;;;;;3.77;100.00;100068.72;10585078;28;20048;-60
2021/11/03 07:19:03;;;;;;;52.75;28.90;;;;;;;3.55;100.00;100077.34;10584384;28;20403;-59
2021/11/03 07:24:06;;;;;;;41.17;27.40;;;;;;;3.65;100.00;100063.13;10583989;28;20047;-60
2021/11/03 07:29:08;;;;;;;44.67;27.48;;;;;;;3.83;100.00;100077.06;10584415;28;20055;-61
2021/11/03 07:34:10;;;;;;;43.45;26.85;;;;;;;4.24;100.00;100071.91;10583610;28;20051;-61
2021/11/03 07:39:13;;;;;;;47.33;28.73;;;;;;;4.09;100.00;100069.97;10583483;28;20398;-59
2021/11/03 07:44:16;;;;;;;39.30;26.67;;;;;;;3.99;100.00;100071.25;10583080;28;20054;-60
2021/11/03 07:49:18;;;;;;;46.60;28.17;;;;;;;3.95;100.00;100061.91;10583242;28;20044;-60
2021/11/03 07:54:21;;;;;;;48.28;29.58;;;;;;;4.42;100.00;100059.91;10583102;28;20050;-58
2021/11/03 07:59:24;;;;;;;73.30;35.28;;;;;;;4.33;100.00;100049.09;10582930;28;20043;-59
2021/11/03 08:04:27;;;;;;;41.42;28.00;;;;;;;4.41;100.00;100057.38;10582577;28;20049;-61
2021/11/03 08:09:30;;;;;;;79.55;35.95;;;;;;;4.33;100.00;100057.69;10581966;28;20056;-59
2021/11/03 08:14:33;;;;;;;66.43;30.85;;;;;;;3.91;100.00;100056.03;10582403;28;20051;-59
2021/11/03 08:19:42;;;;;;;51.22;30.20;;;;;;;4.43;100.00;100065.91;10563952;28;20051;-60
2021/11/03 08:24:44;;;;;;;66.55;32.05;;;;;;;4.44;100.00;100059.84;10579031;28;20059;-60
2021/11/03 08:29:47;;;;;;;43.42;24.75;;;;;;;4.50;100.00;100062.13;10582419;28;20044;-61
2021/11/03 08:34:50;;;;;;;53.78;30.65;;;;;;;4.62;100.00;100063.34;10582019;28;20044;-61
2021/11/03 08:39:54;;;;;;;44.40;27.80;;;;;;;4.65;100.00;100066.66;10563672;28;20059;-60
2021/11/03 08:44:56;;;;;;;34.88;24.92;;;;;;;4.67;100.00;100066.59;10563762;28;20047;-60
2021/11/03 08:49:58;;;;;;;34.63;24.08;;;;;;;4.69;100.00;100062.19;10581441;28;20039;-60
2021/11/03 08:55:01;;;;;;;38.35;26.27;;;;;;;5.05;100.00;100076.16;10581878;28;20043;-60
2021/11/03 09:00:10;;;;;;;42.42;28.33;;;;;;;4.85;100.00;100077.88;10579843;28;20051;-60
2021/11/03 09:05:12;;;;;;;42.35;27.95;;;;;;;4.85;100.00;100085.66;10579916;28;20051;-59
2021/11/03 09:10:17;;;;;;;34.65;25.75;;;;;;;5.08;100.00;100081.19;10581197;28;20047;-61
2021/11/03 09:15:20;;;;;;;38.40;24.20;;;;;;;5.00;100.00;100094.53;10581068;28;20052;-60
2021/11/03 09:20:27;;;;;;;43.38;27.65;;;;;;;5.11;100.00;100096.59;10585990;28;20044;-60
2021/11/03 09:25:29;;;;;;;37.03;26.35;;;;;;;5.32;100.00;100094.78;10588917;28;20054;-61
2021/11/03 09:30:34;;;;;;;42.15;27.50;;;;;;;5.45;100.00;100095.91;10570565;28;20632;-60
2021/11/03 09:35:42;;;;;;;40.13;27.17;;;;;;;5.57;100.00;100102.25;10589351;28;20044;-59
2021/11/03 09:40:47;;;;;;;44.70;28.92;;;;;;;5.64;100.00;100111.44;10570408;28;20048;-60
2021/11/03 09:45:49;;;;;;;49.08;32.00;;;;;;;5.62;100.00;100113.28;10587991;28;20161;-60
2021/11/03 09:50:55;;;;;;;49.38;31.08;;;;;;;5.68;100.00;100114.72;10569960;28;20053;-60
2021/11/03 09:55:59;;;;;;;48.15;30.20;;;;;;;5.91;100.00;100108.41;10587866;28;20514;-62
2021/11/03 10:01:17;;;;;;;37.70;28.13;;;;;;;5.97;100.00;100110.75;10587884;28;20047;-58
2021/11/03 10:06:55;;;;;;;56.22;32.50;;;;;;;5.67;100.00;100113.88;10569989;28;20123;-59
2021/11/03 10:11:59;;;;;;;52.83;34.47;;;;;;;6.02;100.00;100113.97;10586627;28;20050;-60
2021/11/03 10:17:21;;;;;;;46.42;29.92;;;;;;;5.76;100.00;100105.63;10569136;28;20043;-59
2021/11/03 10:22:31;;;;;;;42.50;28.63;;;;;;;5.91;100.00;100104.06;10568784;28;20055;-60
2021/11/03 10:27:49;;;;;;;33.83;26.40;;;;;;;6.31;100.00;100117.69;10569463;28;20088;-61
2021/11/03 10:32:52;;;;;;;39.13;29.67;;;;;;;5.92;100.00;100120.50;10586223;28;20058;-60
2021/11/03 10:38:18;;;;;;;46.65;31.17;;;;;;;6.05;100.00;100113.81;10568046;28;20051;-60
2021/11/03 10:43:26;;;;;;;41.72;29.80;;;;;;;5.98;100.00;100119.38;10586170;28;20047;-59
2021/11/03 10:48:29;;;;;;;56.92;34.63;;;;;;;6.14;100.00;100112.53;10585918;28;20047;-60
2021/11/03 10:53:47;;;;;;;52.45;35.88;;;;;;;6.11;100.00;100107.47;10585600;28;20043;-59
2021/11/03 10:58:52;;;;;;;56.45;36.63;;;;;;;6.45;100.00;100105.75;10585466;28;20044;-60
2021/11/03 11:04:02;;;;;;;49.05;33.55;;;;;;;6.48;100.00;100109.03;10584989;28;20483;-59
2021/11/03 11:09:10;;;;;;;49.35;34.10;;;;;;;6.62;100.00;100097.09;10566964;28;20050;-60
2021/11/03 11:14:20;;;;;;;47.58;32.97;;;;;;;6.61;100.00;100098.84;10584867;28;20047;-60
2021/11/03 11:19:40;;;;;;;49.38;34.53;;;;;;;6.86;100.00;100093.19;10584482;28;20411;-60
2021/11/03 11:24:54;;;;;;;43.92;32.78;;;;;;;7.04;100.00;100080.97;10584221;28;20051;-59
2021/11/03 11:30:12;;;;;;;52.00;35.15;;;;;;;7.20;100.00;100082.75;10584065;28;20480;-59
2021/11/03 11:35:50;;;;;;;70.57;44.88;;;;;;;6.98;100.00;100083.06;10565835;28;20411;-60
2021/11/03 11:41:12;;;;;;;84.97;50.40;;;;;;;7.15;100.00;100085.59;10569134;28;20052;-59
2021/11/03 11:46:19;;;;;;;74.45;50.15;;;;;;;6.88;100.00;100093.94;10565540;28;20052;-60
2021/11/03 11:51:36;;;;;;;91.10;54.22;;;;;;;7.21;100.00;100079.19;10583258;28;20050;-59
2021/11/03 11:56:39;;;;;;;99.18;55.33;;;;;;;7.32;100.00;100083.81;10583018;28;20398;-60
2021/11/03 12:01:57;;;;;;;81.82;51.95;;;;;;;7.38;100.00;100079.13;10582998;28;20052;-61
2021/11/03 12:07:15;;;;;;;74.75;51.67;;;;;;;7.41;100.00;100081.56;10564734;28;20047;-60
2021/11/03 12:12:21;;;;;;;66.72;46.58;;;;;;;7.50;100.00;100071.53;10565217;28;20075;-59
2021/11/03 12:17:46;;;;;;;78.40;49.10;;;;;;;7.35;100.00;100065.44;10582378;28;20062;-61
2021/11/03 12:22:57;;;;;;;66.70;46.88;;;;;;;7.23;100.00;100069.56;10582002;28;20054;-61
2021/11/03 12:28:11;;;;;;;69.40;47.45;;;;;;;7.54;100.00;100060.84;10582328;28;20040;-59
2021/11/03 12:33:16;;;;;;;61.65;44.42;;;;;;;7.60;100.00;100067.50;10581607;28;20398;-59
2021/11/03 12:38:24;;;;;;;59.13;43.55;;;;;;;7.44;100.00;100065.72;10564053;28;20044;-59
2021/11/03 12:43:32;;;;;;;61.47;40.88;;;;;;;7.74;100.00;100056.28;10581755;28;20379;-59
2021/11/03 12:48:57;;;;;;;53.78;39.10;;;;;;;7.53;100.00;100061.81;10581955;28;20039;-59
2021/11/03 12:54:08;;;;;;;57.65;39.67;;;;;;;7.50;100.00;100061.97;10586124;28;20048;-60
2021/11/03 12:59:39;;;;;;;49.38;36.20;;;;;;;7.51;100.00;100071.44;10590163;28;20051;-61
2021/11/03 13:04:47;;;;;;;55.78;38.05;;;;;;;7.78;100.00;100069.06;10590565;28;20050;-59
2021/11/03 13:10:05;;;;;;;45.95;34.13;;;;;;;7.69;100.00;100066.97;10589772;28;20055;-60
2021/11/03 13:15:17;;;;;;;52.17;37.22;;;;;;;7.63;100.00;100070.78;10571850;28;20055;-61
2021/11/03 13:20:29;;;;;;;45.95;32.63;;;;;;;7.72;100.00;100072.00;10571119;28;20047;-60
2021/11/03 13:25:46;;;;;;;49.35;34.35;;;;;;;7.66;100.00;100074.13;10590159;28;20047;-58
2021/11/03 13:30:57;;;;;;;52.75;37.78;;;;;;;7.54;100.00;100066.06;10570627;28;20060;-60
2021/11/03 13:36:17;;;;;;;51.75;37.08;;;;;;;7.66;100.00;100066.31;10571008;28;20044;-60
2021/11/03 13:41:33;;;;;;;46.65;35.03;;;;;;;7.67;100.00;100066.22;10588370;28;20127;-60
2021/11/03 13:46:36;;;;;;;59.90;38.15;;;;;;;7.50;100.00;100067.19;10588205;28;20483;-60
2021/11/03 13:51:42;;;;;;;53.75;38.83;;;;;;;7.60;100.00;100070.09;10588127;28;20047;-59
2021/11/03 13:56:52;;;;;;;52.17;38.42;;;;;;;7.56;100.00;100069.41;10570766;28;20063;-60
2021/11/03 14:02:20;;;;;;;56.13;38.17;;;;;;;7.42;100.00;100069.38;10587656;28;20415;-59
2021/11/03 14:07:28;;;;;;;59.70;41.92;;;;;;;7.43;100.00;100078.84;10569097;28;20058;-59
2021/11/03 14:12:30;;;;;;;52.53;37.50;;;;;;;7.62;100.00;100071.69;10587104;28;20411;-59
2021/11/03 14:17:38;;;;;;;67.95;43.40;;;;;;;7.57;100.00;100080.69;10587604;28;20050;-60
2021/11/03 14:22:45;;;;;;;53.60;39.25;;;;;;;7.50;100.00;100085.41;10586693;28;20073;-59
2021/11/03 14:27:52;;;;;;;50.42;37.55;;;;;;;7.49;100.00;100085.50;10586651;28;20498;-59
2021/11/03 14:32:54;;;;;;;64.10;43.97;;;;;;;7.41;100.00;100084.16;10586580;28;20066;-60
2021/11/03 14:37:59;;;;;;;60.08;39.83;;;;;;;7.33;100.00;100088.09;10586871;28;20043;-60
2021/11/03 14:43:02;;;;;;;52.88;38.13;;;;;;;7.61;100.00;100100.44;10567692;28;20055;-60
2021/11/03 14:48:04;;;;;;;59.17;41.45;;;;;;;7.32;100.00;100092.47;10585905;28;20407;-59
2021/11/03 14:53:12;;;;;;;61.45;39.85;;;;;;;7.36;100.00;100091.41;10585688;28;20047;-59
2021/11/03 14:58:17;;;;;;;61.00;39.83;;;;;;;7.33;100.00;100088.97;10585457;28;20414;-60
2021/11/03 15:03:21;;;;;;;50.78;36.45;;;;;;;7.40;100.00;100087.69;10584907;28;20047;-60
2021/11/03 15:08:31;;;;;;;58.75;36.92;;;;;;;7.23;100.00;100083.41;10585283;28;20044;-59
2021/11/03 15:13:36;;;;;;;53.10;36.05;;;;;;;7.25;100.00;100093.75;10584649;28;20412;-59
2021/11/03 15:18:41;;;;;;;60.20;35.97;;;;;;;7.09;100.00;100101.53;10585388;28;20047;-60
2021/11/03 15:23:44;;;;;;;57.65;37.08;;;;;;;7.06;100.00;100104.28;10585038;28;20051;-59
2021/11/03 15:28:46;;;;;;;62.70;39.30;;;;;;;7.04;100.00;100101.81;10584467;28;20047;-60
2021/11/03 15:33:50;;;;;;;51.53;34.70;;;;;;;7.00;100.00;100115.06;10583983;28;20044;-60
2021/11/03 15:39:01;;;;;;;58.55;35.95;;;;;;;6.94;100.00;100116.19;10583629;28;20479;-58
2021/11/03 15:44:03;;;;;;;49.67;33.90;;;;;;;6.90;100.00;100112.09;10583598;28;20047;-60
2021/11/03 15:49:26;;;;;;;41.80;31.42;;;;;;;7.01;100.00;100125.38;10565329;28;20054;-60
2021/11/03 15:54:30;;;;;;;68.50;36.15;;;;;;;6.80;100.00;100129.13;10565240;28;20051;-59
2021/11/03 15:59:32;;;;;;;67.70;37.42;;;;;;;6.80;100.00;100135.16;10582946;28;20415;-58
2021/11/03 16:04:39;;;;;;;58.80;35.35;;;;;;;7.03;100.00;100128.75;10582784;28;20490;-59
2021/11/03 16:09:42;;;;;;;48.15;31.88;;;;;;;6.79;100.00;100140.44;10564585;28;20050;-60
2021/11/03 16:14:46;;;;;;;52.33;34.10;;;;;;;6.81;100.00;100136.84;10582637;28;20058;-59
2021/11/03 16:19:49;;;;;;;57.83;34.85;;;;;;;7.00;100.00;100135.88;10582371;28;20047;-60
2021/11/03 16:24:52;;;;;;;58.65;37.88;;;;;;;6.80;100.00;100140.34;10564256;28;20063;-60
2021/11/03 16:29:54;;;;;;;66.53;37.20;;;;;;;6.63;100.00;100143.81;10581707;28;20052;-60
2021/11/03 16:34:57;;;;;;;55.90;35.33;;;;;;;6.79;100.00;100143.03;10582551;28;20043;-61
2021/11/03 16:39:59;;;;;;;57.22;35.00;;;;;;;6.71;100.00;100143.44;10581910;28;20069;-58
2021/11/03 16:45:29;;;;;;;65.07;38.58;;;;;;;6.63;100.00;100148.19;10581779;28;20407;-59
2021/11/03 16:50:50;;;;;;;68.07;39.00;;;;;;;6.72;100.00;100142.50;10563725;28;20055;-59
2021/11/03 16:56:01;;;;;;;80.25;41.67;;;;;;;6.67;100.00;100147.97;10581910;28;20085;-60
2021/11/03 17:01:05;;;;;;;97.90;47.88;;;;;;;6.53;100.00;100147.81;10581203;28;20093;-61
2021/11/03 17:06:31;;;;;;;109.38;47.22;;;;;;;6.70;100.00;100158.19;10581728;28;20054;-59
2021/11/03 17:11:34;;;;;;;99.30;48.10;;;;;;;6.76;100.00;100162.25;10564049;28;20048;-59
2021/11/03 17:16:38;;;;;;;111.55;50.67;;;;;;;6.74;100.00;100168.44;10581287;28;20475;-59
2021/11/03 17:21:40;;;;;;;118.82;51.55;;;;;;;6.61;100.00;100171.69;10580751;28;20572;-59
2021/11/03 17:27:14;;;;;;;143.43;54.33;;;;;;;6.63;100.00;100167.25;10580875;28;20403;-58
2021/11/03 17:32:20;;;;;;;100.72;48.38;;;;;;;6.47;100.00;100179.34;10580387;28;20400;-59
2021/11/03 17:37:23;;;;;;;116.32;51.88;;;;;;;6.44;100.00;100179.47;10581492;28;20048;-59
2021/11/03 17:42:32;;;;;;;102.15;49.08;;;;;;;6.59;100.00;100191.75;10586845;28;20055;-58
2021/11/03 17:47:35;;;;;;;106.72;50.45;;;;;;;6.46;100.00;100199.31;10588596;28;20047;-59
2021/11/03 17:52:39;;;;;;;150.77;56.20;;;;;;;6.67;100.00;100199.13;10587750;28;20403;-61
2021/11/03 17:58:10;;;;;;;143.20;53.30;;;;;;;6.83;100.00;100197.44;10587792;28;20482;-59
2021/11/03 18:03:22;;;;;;;123.47;50.22;;;;;;;6.66;100.00;100203.50;10569802;28;20058;-59
2021/11/03 18:08:25;;;;;;;124.72;52.42;;;;;;;6.67;100.00;100210.41;10588604;28;20052;-61
2021/11/03 18:13:30;;;;;;;153.43;55.17;;;;;;;6.53;100.00;100210.25;10587304;28;20043;-58
2021/11/03 18:18:32;;;;;;;107.25;52.08;;;;;;;6.79;100.00;100215.88;10587193;28;20047;-59
2021/11/03 18:23:35;;;;;;;106.88;51.08;;;;;;;6.84;100.00;100222.56;10568975;28;20050;-59
2021/11/03 18:28:38;;;;;;;116.07;53.45;;;;;;;6.50;100.00;100226.00;10586669;28;20483;-60
2021/11/03 18:33:40;;;;;;;88.32;44.03;;;;;;;6.90;100.00;100233.56;10568272;28;20403;-58
2021/11/03 18:38:45;;;;;;;123.93;51.05;;;;;;;6.68;100.00;100234.66;10586376;28;20047;-61
2021/11/03 18:43:49;;;;;;;165.88;58.63;;;;;;;6.68;100.00;100235.47;10586686;28;20077;-61
2021/11/03 18:48:56;;;;;;;177.75;59.92;;;;;;;6.65;100.00;100240.00;10586340;28;20044;-59
2021/11/03 18:53:58;;;;;;;208.93;64.45;;;;;;;6.74;100.00;100241.28;10585550;28;20048;-59
2021/11/03 18:59:21;;;;;;;175.25;60.10;;;;;;;6.56;100.00;100245.69;10556837;28;20048;-59
2021/11/03 19:04:25;;;;;;;179.23;61.08;;;;;;;6.49;100.00;100238.16;10585880;28;20047;-60
2021/11/03 19:09:31;;;;;;;134.60;55.85;;;;;;;6.75;100.00;100243.00;10584796;28;20505;-59
2021/11/03 19:14:34;;;;;;;145.43;54.60;;;;;;;6.87;100.00;100247.56;10584757;28;20058;-59
2021/11/03 19:19:37;;;;;;;188.00;65.03;;;;;;;6.65;100.00;100253.84;10584596;28;20055;-59
2021/11/03 19:24:46;;;;;;;176.60;60.53;;;;;;;6.72;100.00;100254.38;10584360;28;20048;-60
2021/11/03 19:29:49;;;;;;;194.13;64.95;;;;;;;6.49;100.00;100261.56;10583990;28;20047;-59
2021/11/03 19:34:59;;;;;;;160.50;59.17;;;;;;;6.56;100.00;100256.06;10584040;28;20051;-58
2021/11/03 19:40:22;;;;;;;149.02;58.20;;;;;;;6.75;100.00;100258.59;10584146;28;20047;-59
2021/11/03 19:45:27;;;;;;;160.10;57.08;;;;;;;6.66;100.00;100265.09;10583502;28;20059;-58
2021/11/03 19:50:34;;;;;;;178.35;62.15;;;;;;;6.74;100.00;100264.72;10583812;28;20066;-60
2021/11/03 19:55:36;;;;;;;150.18;57.35;;;;;;;6.71;100.00;100255.31;10564948;28;20607;-59
2021/11/03 20:00:39;;;;;;;140.00;54.08;;;;;;;6.78;100.00;100256.69;10582889;28;20475;-60
2021/11/03 20:05:41;;;;;;;136.27;52.97;;;;;;;6.64;100.00;100257.38;10582640;28;20047;-59
2021/11/03 20:10:45;;;;;;;159.68;55.00;;;;;;;6.59;100.00;100254.16;10582434;28;20530;-60
2021/11/03 20:15:47;;;;;;;149.77;57.53;;;;;;;6.32;100.00;100262.41;10583140;28;20043;-60
2021/11/03 20:20:50;;;;;;;131.82;50.92;;;;;;;6.68;100.00;100268.47;10582438;28;20047;-59
2021/11/03 20:25:52;;;;;;;122.63;50.65;;;;;;;6.43;100.00;100268.84;10582147;28;20498;-60
2021/11/03 20:31:01;;;;;;;141.45;53.75;;;;;;;6.29;100.00;100267.72;10582178;28;20048;-59
2021/11/03 20:36:12;;;;;;;145.48;53.42;;;;;;;6.58;100.00;100268.06;10564676;28;20199;-59
2021/11/03 20:41:16;;;;;;;140.05;53.30;;;;;;;6.37;100.00;100277.78;10582067;28;20047;-59
2021/11/03 20:46:19;;;;;;;165.30;53.60;;;;;;;6.64;100.00;100275.59;10581780;28;20050;-60
2021/11/03 20:51:22;;;;;;;127.32;52.08;;;;;;;6.74;100.00;100270.78;10581598;28;20047;-60
2021/11/03 20:56:25;;;;;;;132.85;52.53;;;;;;;6.80;100.00;100283.47;10563841;28;20054;-59
2021/11/03 21:01:27;;;;;;;136.20;52.92;;;;;;;6.45;100.00;100285.19;10581400;28;20040;-59
2021/11/03 21:06:30;;;;;;;184.13;59.03;;;;;;;6.45;100.00;100291.22;10581549;28;20048;-59
2021/11/03 21:11:32;;;;;;;128.45;50.17;;;;;;;6.79;100.00;100305.22;10581290;28;20044;-61
2021/11/03 21:16:35;;;;;;;140.52;51.00;;;;;;;6.76;100.00;100301.91;10587936;28;20491;-59
2021/11/03 21:21:37;;;;;;;145.82;53.33;;;;;;;6.51;100.00;100301.34;10589378;28;20054;-59
2021/11/03 21:26:40;;;;;;;168.15;55.00;;;;;;;6.59;100.00;100302.72;10589863;28;20051;-61
2021/11/03 21:31:42;;;;;;;162.20;53.38;;;;;;;6.51;100.00;100300.50;10570875;28;20054;-60
2021/11/03 21:36:44;;;;;;;103.72;45.15;;;;;;;6.84;100.00;100303.22;10589089;28;20059;-59
2021/11/03 21:41:47;;;;;;;173.23;56.47;;;;;;;6.57;100.00;100302.78;10588384;28;20502;-61
2021/11/03 21:46:49;;;;;;;172.52;56.03;;;;;;;6.67;100.00;100304.06;10588540;28;20048;-58
2021/11/03 21:51:51;;;;;;;144.15;51.13;;;;;;;6.52;100.00;100309.97;10588225;28;20411;-59
2021/11/03 21:56:54;;;;;;;147.02;49.97;;;;;;;6.68;100.00;100310.94;10588086;28;20044;-59
2021/11/03 22:01:56;;;;;;;124.05;49.28;;;;;;;6.75;100.00;100306.25;10569566;28;20039;-60
2021/11/03 22:06:59;;;;;;;127.93;49.63;;;;;;;6.31;100.00;100304.91;10587548;28;20047;-59
2021/11/03 22:12:02;;;;;;;145.15;52.75;;;;;;;6.37;100.00;100301.19;10587438;28;20050;-59
2021/11/03 22:17:05;;;;;;;174.90;56.53;;;;;;;6.41;100.00;100307.91;10587518;28;20047;-59
2021/11/03 22:22:07;;;;;;;168.57;57.22;;;;;;;6.45;100.00;100306.00;10586622;28;20506;-58
2021/11/03 22:27:09;;;;;;;139.10;53.28;;;;;;;6.33;100.00;100310.84;10586603;28;20054;-59
2021/11/03 22:32:11;;;;;;;132.35;50.75;;;;;;;6.40;100.00;100310.56;10586552;28;20044;-59
2021/11/03 22:37:14;;;;;;;144.63;52.45;;;;;;;6.27;100.00;100318.97;10586905;28;20051;-60
2021/11/03 22:42:16;;;;;;;125.38;51.35;;;;;;;6.35;100.00;100318.59;10586335;28;20055;-60
2021/11/03 22:47:19;;;;;;;117.95;48.78;;;;;;;6.60;100.00;100313.06;10585896;28;20491;-60
2021/11/03 22:52:21;;;;;;;129.48;48.95;;;;;;;6.59;100.00;100313.13;10585547;28;20044;-59